Time;durP1;ratioP1;P1;durP2;ratioP2;P2;SDS_P1;SDS_P2;PMS_P1;PMS_P2;Temp;Humidity;BMP_temperature;BMP_pressure;BME280_temperature;BME280_humidity;BME280_pressure;Samples;Min_cycle;Max_cycle;Signal;HPM_P1;HPM_P2
2023/10/23 00:01:17;;;;;;;5.97;4.45;;;12.10;99.90;;;;;;4978869;28;20110;-92
2023/10/23 00:03:43;;;;;;;5.05;4.50;;;12.10;99.90;;;;;;4995114;28;20027;-91
2023/10/23 00:06:08;;;;;;;4.38;3.97;;;12.00;99.90;;;;;;5011113;28;20119;-91
2023/10/23 00:08:34;;;;;;;5.53;4.30;;;12.00;99.90;;;;;;5035525;28;20044;-93
2023/10/23 00:11:00;;;;;;;5.28;4.78;;;11.90;99.90;;;;;;5004779;28;20029;-92
2023/10/23 00:13:26;;;;;;;5.60;4.65;;;11.90;99.90;;;;;;5037211;28;20037;-92
2023/10/23 00:15:51;;;;;;;4.40;4.00;;;11.90;99.90;;;;;;5037526;28;20036;-93
2023/10/23 00:18:17;;;;;;;5.72;4.85;;;11.80;99.90;;;;;;5037757;28;20029;-92
2023/10/23 00:20:43;;;;;;;5.30;4.80;;;11.80;99.90;;;;;;5029563;28;20461;-92
2023/10/23 00:23:08;;;;;;;5.18;4.22;;;11.80;99.90;;;;;;5039941;28;20120;-93
2023/10/23 00:25:34;;;;;;;5.05;4.53;;;11.70;99.90;;;;;;5020601;28;20397;-92
2023/10/23 00:28:01;;;;;;;5.47;4.43;;;11.80;99.90;;;;;;5020845;28;20045;-91
2023/10/23 00:30:27;;;;;;;4.78;4.30;;;11.70;99.90;;;;;;5020586;28;20025;-93
2023/10/23 00:32:53;;;;;;;5.20;4.43;;;11.70;99.90;;;;;;5020549;28;20013;-92
2023/10/23 00:35:21;;;;;;;6.47;4.45;;;11.60;99.90;;;;;;5043281;28;20032;-92
2023/10/23 00:37:47;;;;;;;5.35;4.40;;;11.60;99.90;;;;;;5045508;28;20041;-92
2023/10/23 00:40:13;;;;;;;4.63;4.20;;;11.60;99.90;;;;;;5020578;28;20067;-92
2023/10/23 00:42:38;;;;;;;5.43;4.63;;;11.60;99.90;;;;;;5020992;28;20124;-91
2023/10/23 00:45:05;;;;;;;5.15;4.28;;;11.60;99.90;;;;;;5020991;28;20029;-92
2023/10/23 00:47:30;;;;;;;5.70;4.45;;;11.50;99.90;;;;;;5037894;28;20083;-92
2023/10/23 00:49:59;;;;;;;4.22;3.83;;;11.50;99.90;;;;;;5082364;28;20059;-86
2023/10/23 00:52:25;;;;;;;5.05;4.50;;;11.50;99.90;;;;;;5060803;28;20012;-93
2023/10/23 00:54:52;;;;;;;6.65;4.90;;;11.50;99.90;;;;;;5044270;28;20029;-90
2023/10/23 00:57:18;;;;;;;6.00;4.57;;;11.50;99.90;;;;;;5060977;28;20009;-92
2023/10/23 00:59:44;;;;;;;5.60;4.13;;;11.40;99.90;;;;;;5023854;28;20115;-91
2023/10/23 01:02:09;;;;;;;5.13;4.30;;;11.40;99.90;;;;;;5021955;28;20068;-91
2023/10/23 01:04:36;;;;;;;4.85;4.13;;;11.30;99.90;;;;;;5017506;28;20523;-91
2023/10/23 01:07:02;;;;;;;4.53;4.13;;;11.30;99.90;;;;;;5022917;28;20041;-91
2023/10/23 01:09:28;;;;;;;5.25;4.70;;;11.30;99.90;;;;;;5035785;28;20021;-92
2023/10/23 01:11:53;;;;;;;5.22;4.63;;;11.30;99.90;;;;;;5040070;28;20040;-91
2023/10/23 01:14:19;;;;;;;4.95;4.30;;;11.30;99.90;;;;;;5037256;28;20029;-91
2023/10/23 01:16:45;;;;;;;5.68;4.88;;;11.30;99.90;;;;;;5053742;28;20135;-92
2023/10/23 01:19:10;;;;;;;6.20;4.20;;;11.30;99.90;;;;;;5020094;28;20112;-92
2023/10/23 01:21:36;;;;;;;5.60;4.88;;;11.30;99.90;;;;;;5054216;28;20383;-92
2023/10/23 01:24:07;;;;;;;5.35;4.47;;;11.30;99.90;;;;;;5021223;28;20032;-93
2023/10/23 01:26:33;;;;;;;4.78;4.28;;;11.20;99.90;;;;;;5036970;28;20017;-92
2023/10/23 01:28:58;;;;;;;5.07;4.32;;;11.20;99.90;;;;;;5022978;28;20031;-92
2023/10/23 01:31:24;;;;;;;5.22;4.72;;;11.20;99.90;;;;;;5055919;28;20036;-92
2023/10/23 01:33:50;;;;;;;5.38;4.88;;;11.20;99.90;;;;;;5056414;28;20035;-91
2023/10/23 01:36:15;;;;;;;5.40;4.90;;;11.20;99.90;;;;;;5044681;28;20075;-93
2023/10/23 01:38:43;;;;;;;5.60;4.68;;;11.10;99.90;;;;;;5019885;28;20035;-91
2023/10/23 01:41:08;;;;;;;5.15;4.50;;;11.20;99.90;;;;;;5019983;28;20558;-91
2023/10/23 01:43:34;;;;;;;12.40;4.75;;;11.10;99.90;;;;;;5045963;28;20120;-92
2023/10/23 01:46:00;;;;;;;5.35;4.82;;;11.10;99.90;;;;;;5026444;28;20485;-92
2023/10/23 01:48:26;;;;;;;5.60;5.00;;;11.10;99.90;;;;;;5034976;28;20425;-91
2023/10/23 01:50:52;;;;;;;6.15;4.95;;;11.10;99.90;;;;;;5022373;28;20541;-92
2023/10/23 01:53:18;;;;;;;5.28;4.72;;;11.10;99.90;;;;;;5035866;28;20098;-92
2023/10/23 01:55:44;;;;;;;5.93;5.05;;;11.10;99.90;;;;;;5020017;28;20041;-92
2023/10/23 01:58:09;;;;;;;5.30;4.80;;;11.10;99.90;;;;;;5003100;28;20037;-93
2023/10/23 02:00:35;;;;;;;6.10;5.28;;;11.20;99.90;;;;;;5036253;28;20032;-92
2023/10/23 02:03:01;;;;;;;6.95;5.22;;;11.20;99.90;;;;;;5053375;28;20053;-91
2023/10/23 02:05:27;;;;;;;6.38;5.28;;;11.20;99.90;;;;;;5038077;28;20377;-91
2023/10/23 02:07:52;;;;;;;6.95;4.82;;;11.30;99.90;;;;;;5035924;28;20111;-91
2023/10/23 02:10:20;;;;;;;5.75;5.20;;;11.30;99.90;;;;;;5021317;28;20075;-92
2023/10/23 02:12:46;;;;;;;5.78;5.18;;;11.30;99.90;;;;;;5018385;28;20021;-93
2023/10/23 02:15:13;;;;;;;5.78;5.18;;;11.30;99.90;;;;;;5056227;28;20025;-90
2023/10/23 02:17:39;;;;;;;5.93;5.18;;;11.40;99.90;;;;;;5041812;28;20120;-92
2023/10/23 02:20:05;;;;;;;6.50;5.85;;;11.40;99.90;;;;;;5036539;28;20083;-92
2023/10/23 02:22:32;;;;;;;6.65;6.05;;;11.50;99.90;;;;;;5037214;28;20026;-91
2023/10/23 02:24:57;;;;;;;7.35;6.20;;;11.50;99.90;;;;;;5040513;28;20021;-90
2023/10/23 02:27:23;;;;;;;6.82;5.93;;;11.50;99.90;;;;;;5042966;28;20014;-92
2023/10/23 02:29:49;;;;;;;5.72;5.20;;;11.50;99.90;;;;;;5059123;28;20030;-92
2023/10/23 02:32:14;;;;;;;6.53;5.93;;;11.60;99.90;;;;;;5049448;28;20041;-92
2023/10/23 02:34:42;;;;;;;7.18;6.30;;;11.60;99.90;;;;;;5035365;28;20026;-91
2023/10/23 02:37:08;;;;;;;6.47;5.85;;;11.70;99.90;;;;;;5042721;28;20037;-92
2023/10/23 02:39:34;;;;;;;6.18;5.57;;;11.70;99.90;;;;;;5036306;28;20528;-92
2023/10/23 02:42:00;;;;;;;6.07;5.53;;;11.70;99.90;;;;;;5035419;28;20033;-93
2023/10/23 02:44:26;;;;;;;6.38;5.40;;;11.80;99.90;;;;;;5004935;28;20036;-92
2023/10/23 02:46:54;;;;;;;7.80;5.82;;;11.80;99.90;;;;;;5025971;28;20083;-91
2023/10/23 02:49:20;;;;;;;6.57;5.55;;;11.80;99.90;;;;;;5019468;28;20116;-91
2023/10/23 02:51:46;;;;;;;6.05;5.45;;;11.80;99.90;;;;;;5018185;28;20137;-92
2023/10/23 02:54:12;;;;;;;5.85;5.15;;;11.80;99.90;;;;;;5019152;28;20060;-93
2023/10/23 02:56:38;;;;;;;5.22;4.72;;;11.90;99.90;;;;;;5035763;28;20033;-92
2023/10/23 02:59:04;;;;;;;5.32;4.80;;;11.80;99.90;;;;;;5046580;28;20026;-91
2023/10/23 03:01:30;;;;;;;5.45;4.95;;;11.80;99.90;;;;;;5018902;28;20068;-92
2023/10/23 03:03:59;;;;;;;5.25;4.75;;;11.90;99.90;;;;;;5015905;28;20026;-93
2023/10/23 03:06:24;;;;;;;5.90;5.03;;;11.90;99.90;;;;;;5018086;28;20496;-92
2023/10/23 03:08:52;;;;;;;6.47;5.32;;;11.90;99.90;;;;;;5046842;28;20025;-92
2023/10/23 03:11:18;;;;;;;6.80;5.28;;;11.90;99.90;;;;;;5038394;28;20025;-91
2023/10/23 03:13:44;;;;;;;5.43;4.93;;;11.90;99.90;;;;;;5022051;28;20025;-91
2023/10/23 03:16:14;;;;;;;5.75;5.15;;;11.90;99.90;;;;;;5036731;28;20021;-91
2023/10/23 03:18:39;;;;;;;5.65;5.05;;;11.90;99.90;;;;;;5038516;28;20025;-91
2023/10/23 03:21:05;;;;;;;5.63;4.60;;;11.90;99.90;;;;;;5019953;28;20115;-91
2023/10/23 03:23:31;;;;;;;5.00;4.50;;;11.90;99.90;;;;;;5018417;28;20112;-91
2023/10/23 03:25:57;;;;;;;5.25;4.47;;;12.00;99.90;;;;;;5002235;28;20022;-87
2023/10/23 03:28:23;;;;;;;4.55;4.03;;;11.90;99.90;;;;;;5017557;28;20033;-90
2023/10/23 03:30:49;;;;;;;6.18;4.15;;;12.00;99.90;;;;;;5018546;28;20488;-92
2023/10/23 03:33:15;;;;;;;4.88;4.38;;;12.00;99.90;;;;;;5005171;28;20025;-92
2023/10/23 03:35:44;;;;;;;5.07;4.57;;;12.00;99.90;;;;;;5021648;28;20036;-92
2023/10/23 03:38:12;;;;;;;4.63;4.18;;;12.00;99.90;;;;;;5040103;28;20493;-90
2023/10/23 03:40:37;;;;;;;5.07;4.47;;;12.00;99.90;;;;;;5055583;28;20087;-91
2023/10/23 03:43:03;;;;;;;5.45;4.85;;;12.00;99.90;;;;;;5021118;28;20029;-92
2023/10/23 03:45:29;;;;;;;4.70;4.20;;;12.00;99.90;;;;;;5055668;28;20021;-94
2023/10/23 03:47:54;;;;;;;6.25;5.10;;;12.00;99.90;;;;;;5021539;28;20029;-93
2023/10/23 03:50:20;;;;;;;6.70;4.82;;;12.00;99.90;;;;;;5038061;28;20090;-91
2023/10/23 03:52:46;;;;;;;5.07;4.53;;;12.00;99.90;;;;;;5055305;28;20160;-92
2023/10/23 03:55:14;;;;;;;5.75;4.43;;;12.00;99.90;;;;;;5040232;28;20358;-92
2023/10/23 03:57:43;;;;;;;5.13;4.32;;;12.10;99.90;;;;;;5046531;28;20528;-92
2023/10/23 04:00:10;;;;;;;5.25;4.30;;;12.10;99.90;;;;;;5033293;28;20009;-89
2023/10/23 04:02:36;;;;;;;4.93;4.45;;;12.10;99.90;;;;;;5042243;28;20009;-88
2023/10/23 04:05:02;;;;;;;4.90;4.43;;;12.10;99.90;;;;;;5060866;28;20044;-92
2023/10/23 04:07:27;;;;;;;5.07;4.50;;;12.10;99.90;;;;;;5055942;28;20045;-95
2023/10/23 04:09:53;;;;;;;4.82;4.32;;;12.10;99.90;;;;;;5062462;28;20048;-92
2023/10/23 04:12:19;;;;;;;4.55;4.15;;;12.10;99.90;;;;;;5055893;28;20064;-90
2023/10/23 04:14:50;;;;;;;4.65;4.15;;;12.10;99.90;;;;;;5055123;28;20029;-91
2023/10/23 04:17:16;;;;;;;4.97;4.45;;;12.10;99.90;;;;;;5037006;28;20091;-90
2023/10/23 04:19:41;;;;;;;4.57;4.10;;;12.10;99.90;;;;;;5037095;28;20460;-90
2023/10/23 04:22:25;;;;;;;5.20;4.70;;;12.10;99.90;;;;;;5037097;28;20119;-92
2023/10/23 04:24:53;;;;;;;4.90;4.40;;;12.10;99.90;;;;;;5021958;28;20021;-92
2023/10/23 04:27:19;;;;;;;4.90;4.40;;;12.10;99.90;;;;;;5017283;28;20036;-92
2023/10/23 04:29:47;;;;;;;4.95;4.50;;;12.10;99.90;;;;;;5001658;28;20072;-94
2023/10/23 04:32:13;;;;;;;5.30;4.63;;;12.10;99.90;;;;;;5001267;28;20038;-92
2023/10/23 04:34:39;;;;;;;4.72;4.25;;;12.20;99.90;;;;;;5006480;28;20076;-92
2023/10/23 04:37:04;;;;;;;4.82;4.20;;;12.20;99.90;;;;;;5018733;28;20454;-92
2023/10/23 04:39:30;;;;;;;4.40;3.92;;;12.20;99.90;;;;;;5036671;28;20381;-92
2023/10/23 04:41:55;;;;;;;5.03;4.53;;;12.20;99.90;;;;;;5032819;28;20461;-92
2023/10/23 04:44:22;;;;;;;4.47;4.07;;;12.20;99.90;;;;;;5043647;28;20059;-91
2023/10/23 04:46:48;;;;;;;5.10;4.60;;;12.20;99.90;;;;;;5038687;28;20017;-91
2023/10/23 04:49:14;;;;;;;5.40;4.90;;;12.20;99.90;;;;;;5050781;28;20021;-92
2023/10/23 04:51:39;;;;;;;5.30;4.80;;;12.20;99.90;;;;;;5011346;28;20170;-93
2023/10/23 04:54:05;;;;;;;4.63;4.22;;;12.20;99.90;;;;;;5028387;28;20041;-92
2023/10/23 04:56:31;;;;;;;4.97;4.45;;;12.20;99.90;;;;;;5037815;28;20112;-92
2023/10/23 04:58:57;;;;;;;5.63;4.65;;;12.20;99.90;;;;;;5020176;28;20508;-91
2023/10/23 05:01:24;;;;;;;5.30;4.80;;;12.20;99.90;;;;;;5036019;28;20377;-93
2023/10/23 05:03:49;;;;;;;5.47;4.82;;;12.10;99.90;;;;;;5056684;28;20498;-93
2023/10/23 05:06:15;;;;;;;5.43;4.90;;;12.10;99.90;;;;;;5039942;28;20088;-91
2023/10/23 05:08:41;;;;;;;5.93;5.07;;;12.10;99.90;;;;;;5074398;28;20028;-89
2023/10/23 05:11:07;;;;;;;5.65;5.10;;;12.20;99.90;;;;;;5040485;28;20050;-96
2023/10/23 05:13:33;;;;;;;5.70;5.15;;;12.10;99.90;;;;;;5056558;28;20022;-92
2023/10/23 05:16:04;;;;;;;5.68;5.18;;;12.10;99.90;;;;;;5023741;28;20545;-92
2023/10/23 05:18:31;;;;;;;5.13;4.63;;;12.20;99.90;;;;;;5020276;28;20056;-93
2023/10/23 05:20:57;;;;;;;5.65;5.15;;;12.10;99.90;;;;;;5020529;28;20037;-93
2023/10/23 05:23:23;;;;;;;6.10;5.50;;;12.20;99.90;;;;;;5027619;28;20051;-92
2023/10/23 05:25:48;;;;;;;5.60;5.10;;;12.10;99.90;;;;;;5020350;28;20532;-92
2023/10/23 05:28:14;;;;;;;5.82;5.22;;;12.10;99.90;;;;;;5004903;28;20552;-91
2023/10/23 05:30:40;;;;;;;5.50;4.95;;;12.10;99.90;;;;;;5024566;28;20041;-92
2023/10/23 05:33:08;;;;;;;6.68;5.70;;;12.20;99.90;;;;;;5046582;28;20028;-95
2023/10/23 05:35:34;;;;;;;6.57;5.55;;;12.20;99.90;;;;;;5052751;28;20054;-94
2023/10/23 05:38:02;;;;;;;5.55;5.05;;;12.20;99.90;;;;;;5058152;28;20055;-93
2023/10/23 05:40:28;;;;;;;6.32;5.10;;;12.20;99.90;;;;;;5063919;28;20036;-94
2023/10/23 05:42:54;;;;;;;7.05;6.07;;;12.20;99.90;;;;;;5039996;28;20037;-93
2023/10/23 05:45:19;;;;;;;7.07;5.68;;;12.20;99.90;;;;;;5066935;28;20461;-93
2023/10/23 05:47:45;;;;;;;6.43;5.65;;;12.20;99.90;;;;;;5043805;28;20028;-94
2023/10/23 05:50:11;;;;;;;5.85;5.28;;;12.20;99.90;;;;;;5047904;28;20020;-94
2023/10/23 05:52:36;;;;;;;6.75;5.60;;;12.20;99.90;;;;;;5022601;28;20078;-95
2023/10/23 05:55:04;;;;;;;6.53;5.82;;;12.20;99.90;;;;;;5060426;28;20054;-94
2023/10/23 05:57:31;;;;;;;6.38;5.63;;;12.10;99.90;;;;;;5060410;28;20031;-95
2023/10/23 05:59:57;;;;;;;6.28;5.53;;;12.20;99.90;;;;;;5077883;28;20028;-94
2023/10/23 06:02:23;;;;;;;6.50;5.28;;;12.10;99.90;;;;;;5049255;28;20052;-94
2023/10/23 06:04:48;;;;;;;6.00;4.95;;;12.10;99.90;;;;;;5058000;28;20025;-96
2023/10/23 06:07:19;;;;;;;5.18;4.60;;;12.10;99.90;;;;;;5065382;28;20088;-94
2023/10/23 06:09:45;;;;;;;5.05;4.55;;;12.10;99.90;;;;;;5056954;28;20111;-96
2023/10/23 06:12:11;;;;;;;5.85;5.18;;;12.10;99.90;;;;;;5040370;28;20106;-95
2023/10/23 06:14:37;;;;;;;4.90;4.40;;;12.10;99.90;;;;;;5040100;28;20047;-94
2023/10/23 06:17:03;;;;;;;5.50;4.53;;;12.10;99.90;;;;;;5040218;28;20082;-94
2023/10/23 06:19:33;;;;;;;5.65;4.28;;;12.10;99.90;;;;;;5023459;28;20029;-95
2023/10/23 06:22:01;;;;;;;4.50;4.03;;;12.10;99.90;;;;;;5040156;28;20040;-94
2023/10/23 06:24:27;;;;;;;6.95;4.03;;;12.10;99.90;;;;;;5027461;28;20056;-95
2023/10/23 06:26:53;;;;;;;3.78;3.47;;;12.10;99.90;;;;;;5059230;28;20025;-96
2023/10/23 06:29:19;;;;;;;4.65;3.20;;;12.10;99.90;;;;;;5011615;28;20449;-93
2023/10/23 06:31:44;;;;;;;8.05;3.47;;;12.10;99.90;;;;;;5048550;28;20025;-96
2023/10/23 06:34:10;;;;;;;8.40;3.22;;;12.10;99.90;;;;;;5039441;28;20021;-96
2023/10/23 06:36:40;;;;;;;3.33;3.03;;;12.00;99.90;;;;;;5041668;28;20112;-95
2023/10/23 06:39:06;;;;;;;5.63;3.22;;;12.00;99.90;;;;;;5057294;28;20017;-95
2023/10/23 06:41:32;;;;;;;3.13;2.78;;;12.00;99.90;;;;;;5056647;28;20033;-93
2023/10/23 06:43:58;;;;;;;4.97;3.28;;;12.00;99.90;;;;;;5056941;28;20025;-94
2023/10/23 06:46:23;;;;;;;3.75;3.10;;;12.00;99.90;;;;;;5055847;28;20028;-88
2023/10/23 06:48:49;;;;;;;7.30;2.78;;;11.90;99.90;;;;;;5057580;28;20025;-96
2023/10/23 06:51:15;;;;;;;9.52;3.03;;;11.90;99.90;;;;;;5040663;28;20465;-93
2023/10/23 06:53:40;;;;;;;3.92;2.67;;;11.90;99.90;;;;;;5058378;28;20052;-93
2023/10/23 06:56:08;;;;;;;7.72;3.10;;;11.90;99.90;;;;;;5048682;28;20021;-94
2023/10/23 06:58:34;;;;;;;4.30;3.25;;;11.90;99.90;;;;;;5039104;28;20075;-93
2023/10/23 07:01:09;;;;;;;3.10;2.80;;;11.90;99.90;;;;;;5038790;28;20492;-94
2023/10/23 07:03:37;;;;;;;3.50;3.20;;;11.90;99.90;;;;;;5056927;28;20025;-94
2023/10/23 07:06:05;;;;;;;5.35;3.10;;;11.90;99.90;;;;;;5022129;28;20029;-93
2023/10/23 07:08:31;;;;;;;11.30;3.75;;;11.90;99.90;;;;;;5057685;28;20097;-94
2023/10/23 07:10:57;;;;;;;3.83;3.45;;;11.90;99.90;;;;;;5022673;28;20028;-95
2023/10/23 07:13:25;;;;;;;6.53;3.08;;;11.90;99.90;;;;;;5054635;28;20025;-95
2023/10/23 07:15:51;;;;;;;7.50;3.63;;;11.90;99.90;;;;;;5062007;28;20055;-94
2023/10/23 07:18:17;;;;;;;6.30;3.88;;;11.90;99.90;;;;;;5065197;28;20013;-94
2023/10/23 07:20:57;;;;;;;11.07;4.05;;;11.90;99.90;;;;;;5079421;28;20033;-94
2023/10/23 07:23:23;;;;;;;7.75;3.97;;;11.90;99.90;;;;;;5053873;28;20481;-95
2023/10/23 07:26:01;;;;;;;5.15;4.32;;;11.90;99.90;;;;;;5063291;28;20036;-95
2023/10/23 07:28:27;;;;;;;6.38;3.92;;;11.90;99.90;;;;;;5076613;28;20039;-94
2023/10/23 07:30:53;;;;;;;8.60;4.80;;;11.90;99.90;;;;;;5058387;28;20021;-93
2023/10/23 07:33:19;;;;;;;6.82;4.45;;;11.90;99.90;;;;;;5058543;28;20373;-93
2023/10/23 07:35:44;;;;;;;5.25;4.50;;;11.90;99.90;;;;;;5058150;28;20029;-92
2023/10/23 07:38:10;;;;;;;4.78;4.20;;;11.90;99.90;;;;;;5037907;28;20021;-95
2023/10/23 07:40:43;;;;;;;6.13;4.30;;;12.00;99.90;;;;;;5037803;28;20041;-94
2023/10/23 07:43:09;;;;;;;11.75;4.57;;;12.00;99.90;;;;;;5044381;28;20021;-94
2023/10/23 07:45:39;;;;;;;5.80;4.70;;;12.00;99.90;;;;;;5040089;28;20028;-94
2023/10/23 07:48:08;;;;;;;9.82;4.63;;;12.00;99.90;;;;;;5056137;28;20028;-93
2023/10/23 07:50:35;;;;;;;5.78;5.18;;;12.00;99.90;;;;;;5038385;28;20083;-95
2023/10/23 07:53:01;;;;;;;10.57;5.05;;;12.00;99.90;;;;;;5038194;28;20094;-94
2023/10/23 07:55:32;;;;;;;6.28;5.40;;;12.00;99.90;;;;;;5055914;28;20048;-94
2023/10/23 07:57:57;;;;;;;5.60;4.80;;;12.10;99.90;;;;;;5055485;28;20025;-96
2023/10/23 08:00:23;;;;;;;7.90;4.78;;;12.10;99.90;;;;;;5039088;28;20052;-94
2023/10/23 08:02:51;;;;;;;9.15;5.10;;;12.10;99.90;;;;;;5038340;28;20468;-94
2023/10/23 08:05:16;;;;;;;7.20;4.80;;;12.00;99.90;;;;;;5041671;28;20078;-95
2023/10/23 08:07:42;;;;;;;5.25;4.72;;;12.00;99.90;;;;;;5058244;28;20446;-95
2023/10/23 08:10:08;;;;;;;7.65;4.68;;;12.00;99.90;;;;;;5059081;28;20102;-95
2023/10/23 08:12:34;;;;;;;4.53;4.10;;;12.10;99.90;;;;;;5059082;28;20024;-90
2023/10/23 08:15:00;;;;;;;9.48;4.53;;;12.10;99.90;;;;;;5043457;28;20392;-95
2023/10/23 08:17:25;;;;;;;5.30;4.38;;;12.10;99.90;;;;;;5072829;28;20445;-95
2023/10/23 08:19:54;;;;;;;8.25;5.00;;;12.10;99.90;;;;;;5042583;28;20005;-95
2023/10/23 08:22:23;;;;;;;6.78;5.13;;;12.10;99.90;;;;;;5048001;28;20075;-95
2023/10/23 08:24:49;;;;;;;10.88;5.53;;;12.00;99.90;;;;;;5060828;28;20082;-96
2023/10/23 08:27:14;;;;;;;6.22;5.30;;;12.00;99.90;;;;;;5050324;28;20048;-95
2023/10/23 08:29:43;;;;;;;11.07;5.60;;;12.00;99.90;;;;;;5043581;28;20044;-95
2023/10/23 08:32:09;;;;;;;8.68;5.82;;;12.00;99.90;;;;;;5050168;28;20063;-96
2023/10/23 08:34:35;;;;;;;10.48;6.57;;;11.90;99.90;;;;;;5050479;28;20028;-94
2023/10/23 08:37:03;;;;;;;7.55;6.10;;;11.90;99.90;;;;;;5040476;28;20052;-95
2023/10/23 08:39:29;;;;;;;7.10;6.13;;;11.90;99.90;;;;;;5046518;28;20115;-94
2023/10/23 08:41:57;;;;;;;10.38;6.07;;;11.90;99.90;;;;;;5060665;28;20055;-95
2023/10/23 08:44:22;;;;;;;8.93;6.43;;;11.80;99.90;;;;;;5045681;28;20024;-94
2023/10/23 08:46:49;;;;;;;8.00;6.40;;;11.80;99.90;;;;;;5048720;28;20029;-93
2023/10/23 08:49:15;;;;;;;7.60;6.80;;;11.90;99.90;;;;;;5070308;28;20013;-95
2023/10/23 08:51:41;;;;;;;7.95;6.63;;;11.90;99.90;;;;;;5056791;28;20113;-86
2023/10/23 08:54:17;;;;;;;9.80;7.25;;;12.00;99.90;;;;;;5047281;28;20012;-95
2023/10/23 08:56:43;;;;;;;9.63;6.65;;;12.00;99.90;;;;;;5078039;28;20461;-87
2023/10/23 08:59:10;;;;;;;7.55;6.50;;;12.00;99.90;;;;;;5060848;28;20076;-96
2023/10/23 09:01:37;;;;;;;10.73;7.13;;;12.10;99.90;;;;;;5051754;28;20029;-94
2023/10/23 09:04:10;;;;;;;8.63;6.55;;;12.10;99.90;;;;;;5077548;28;20025;-94
2023/10/23 09:06:36;;;;;;;7.80;6.63;;;12.10;99.90;;;;;;5017612;28;20068;-95
2023/10/23 09:09:06;;;;;;;8.45;6.07;;;12.10;99.90;;;;;;5040308;28;20029;-94
2023/10/23 09:11:48;;;;;;;6.50;5.80;;;12.00;99.90;;;;;;5045115;28;20060;-95
2023/10/23 09:14:28;;;;;;;9.10;7.50;;;12.10;99.90;;;;;;5044136;28;20033;-95
2023/10/23 09:16:56;;;;;;;8.68;7.30;;;12.20;99.90;;;;;;5048021;28;20032;-96
2023/10/23 09:19:34;;;;;;;8.65;7.60;;;12.20;99.90;;;;;;5064485;28;20071;-94
2023/10/23 09:22:08;;;;;;;9.10;7.47;;;12.30;99.90;;;;;;5053728;28;20048;-95
2023/10/23 09:24:36;;;;;;;9.18;7.20;;;12.30;99.90;;;;;;5056801;28;20056;-95
2023/10/23 09:27:03;;;;;;;9.77;7.35;;;12.40;99.90;;;;;;5064643;28;20025;-96
2023/10/23 09:29:28;;;;;;;9.73;7.97;;;12.50;99.90;;;;;;5050968;28;20021;-93
2023/10/23 09:31:59;;;;;;;10.85;8.13;;;12.50;99.90;;;;;;5046270;28;20063;-95
2023/10/23 09:34:25;;;;;;;;;;;12.60;99.90;;;;;;5046968;28;20036;-95
2023/10/23 09:36:51;;;;;;;11.00;8.32;;;12.70;99.90;;;;;;5045488;28;20062;-96
2023/10/23 09:39:19;;;;;;;10.65;9.35;;;12.60;99.90;;;;;;5066213;28;20045;-95
2023/10/23 09:41:48;;;;;;;13.18;9.75;;;12.80;99.90;;;;;;5068121;28;20029;-90
2023/10/23 09:44:14;;;;;;;11.93;9.68;;;12.80;99.90;;;;;;5045998;28;20021;-95
2023/10/23 09:46:43;;;;;;;12.77;9.82;;;12.80;99.90;;;;;;5068790;28;20035;-94
2023/10/23 09:49:10;;;;;;;12.90;9.50;;;12.90;99.90;;;;;;5043818;28;20026;-96
2023/10/23 09:51:39;;;;;;;12.32;9.95;;;13.00;99.90;;;;;;5045926;28;20362;-94
2023/10/23 09:54:19;;;;;;;13.20;10.52;;;13.00;99.90;;;;;;5045549;28;20020;-95
2023/10/23 09:56:49;;;;;;;12.88;11.07;;;13.10;99.90;;;;;;5072157;28;20028;-95
2023/10/23 09:59:18;;;;;;;15.07;11.40;;;13.10;99.90;;;;;;5065246;28;20063;-95
2023/10/23 10:01:49;;;;;;;15.70;11.25;;;13.30;99.90;;;;;;5083600;28;20028;-94
2023/10/23 10:04:28;;;;;;;14.38;11.60;;;13.30;99.90;;;;;;5049739;28;20465;-96
2023/10/23 10:07:00;;;;;;;13.48;11.02;;;13.30;99.90;;;;;;5045649;28;20136;-93
2023/10/23 10:09:28;;;;;;;13.90;10.70;;;13.30;99.90;;;;;;5042414;28;20025;-94
2023/10/23 10:11:55;;;;;;;14.70;11.63;;;13.30;99.90;;;;;;5046706;28;20033;-94
2023/10/23 10:14:23;;;;;;;13.95;11.07;;;13.40;99.90;;;;;;5044863;28;20096;-94
2023/10/23 10:16:55;;;;;;;13.77;11.60;;;13.40;99.90;;;;;;5035127;28;20054;-89
2023/10/23 10:19:30;;;;;;;17.98;12.18;;;13.40;99.90;;;;;;5006808;28;20030;-95
2023/10/23 10:22:23;;;;;;;12.95;10.35;;;13.40;99.90;;;;;;5020220;28;20038;-96
2023/10/23 10:24:52;;;;;;;13.95;10.23;;;13.40;99.90;;;;;;5009282;28;20094;-94
2023/10/23 10:27:21;;;;;;;10.00;8.77;;;13.50;99.90;;;;;;5046754;28;20005;-94
2023/10/23 10:29:47;;;;;;;12.25;8.18;;;13.50;99.90;;;;;;5060335;28;20013;-94
2023/10/23 10:32:13;;;;;;;11.00;8.52;;;13.60;99.90;;;;;;5042704;28;20070;-94
2023/10/23 10:34:59;;;;;;;11.68;8.23;;;13.70;99.90;;;;;;5020513;28;20033;-94
2023/10/23 10:37:27;;;;;;;10.93;8.18;;;13.70;99.90;;;;;;5032292;28;20068;-95
2023/10/23 10:40:03;;;;;;;9.40;6.72;;;13.80;99.90;;;;;;5008672;28;20029;-90
2023/10/23 10:42:38;;;;;;;9.13;7.80;;;13.80;99.90;;;;;;5008126;28;20042;-94
2023/10/23 10:45:09;;;;;;;9.00;7.22;;;13.90;99.90;;;;;;5009100;28;20026;-96
2023/10/23 10:47:41;;;;;;;9.65;7.32;;;13.90;99.90;;;;;;5034991;28;20095;-95
2023/10/23 10:50:13;;;;;;;9.45;7.60;;;14.00;99.90;;;;;;5032191;28;20033;-96
2023/10/23 10:52:43;;;;;;;10.07;7.07;;;14.00;99.90;;;;;;5024269;28;20065;-96
2023/10/23 10:55:12;;;;;;;13.85;7.65;;;14.00;99.90;;;;;;5022661;28;20025;-95
2023/10/23 10:57:42;;;;;;;10.75;8.23;;;14.10;99.90;;;;;;5047599;28;20013;-94
2023/10/23 11:00:21;;;;;;;10.45;7.72;;;14.20;99.90;;;;;;5048300;28;20434;-95
2023/10/23 11:02:53;;;;;;;10.75;7.43;;;14.20;99.90;;;;;;5050824;28;20081;-95
2023/10/23 11:05:22;;;;;;;10.88;8.63;;;14.30;99.90;;;;;;5031102;28;20079;-95
2023/10/23 11:07:52;;;;;;;11.50;8.93;;;14.30;99.90;;;;;;5046975;28;20050;-96
2023/10/23 11:10:20;;;;;;;15.13;9.15;;;14.40;99.90;;;;;;5044923;28;20044;-94
2023/10/23 11:12:47;;;;;;;12.25;8.50;;;14.30;99.90;;;;;;5056865;28;20024;-94
2023/10/23 11:15:16;;;;;;;13.10;9.15;;;14.40;99.90;;;;;;5044946;28;20086;-94
2023/10/23 11:17:46;;;;;;;12.05;8.80;;;14.40;99.90;;;;;;5043134;28;20028;-95
2023/10/23 11:20:13;;;;;;;13.80;9.45;;;14.50;99.90;;;;;;5062460;28;20025;-93
2023/10/23 11:22:49;;;;;;;13.32;9.55;;;14.50;99.90;;;;;;5044317;28;20037;-94
2023/10/23 11:25:15;;;;;;;12.88;9.05;;;14.60;99.90;;;;;;5046335;28;20491;-95
2023/10/23 11:27:49;;;;;;;13.30;10.10;;;14.60;99.90;;;;;;5066364;28;20333;-95
2023/10/23 11:30:18;;;;;;;14.65;10.55;;;14.60;99.90;;;;;;5050232;28;20023;-95
2023/10/23 11:32:51;;;;;;;19.27;11.98;;;14.70;99.90;;;;;;5050454;28;20117;-94
2023/10/23 11:35:19;;;;;;;18.23;12.25;;;14.70;99.90;;;;;;5049148;28;20029;-94
2023/10/23 11:37:56;;;;;;;16.08;11.95;;;14.70;99.90;;;;;;5047051;28;20021;-94
2023/10/23 11:40:32;;;;;;;14.13;11.93;;;14.70;99.90;;;;;;5046400;28;20080;-95
2023/10/23 11:42:58;;;;;;;17.40;12.52;;;14.70;99.90;;;;;;5046894;28;20088;-94
2023/10/23 11:45:24;;;;;;;18.95;11.88;;;14.80;99.90;;;;;;5044639;28;20036;-94
2023/10/23 11:47:53;;;;;;;15.75;12.07;;;14.80;99.90;;;;;;5067962;28;20017;-96
2023/10/23 11:50:25;;;;;;;14.48;10.55;;;14.80;99.90;;;;;;5047600;28;20032;-95
2023/10/23 11:52:51;;;;;;;18.83;10.05;;;14.90;99.90;;;;;;5029747;28;20051;-91
2023/10/23 11:55:22;;;;;;;15.27;10.35;;;14.90;99.90;;;;;;5050783;28;20036;-95
2023/10/23 11:57:55;;;;;;;13.05;9.93;;;15.00;99.90;;;;;;5055408;28;20044;-95
2023/10/23 12:00:24;;;;;;;12.80;9.05;;;15.00;99.90;;;;;;5074523;28;20554;-96
2023/10/23 12:02:54;;;;;;;12.00;7.68;;;14.90;99.90;;;;;;5054353;28;20048;-95
2023/10/23 12:05:21;;;;;;;11.20;6.75;;;14.90;99.90;;;;;;5054989;28;20106;-94
2023/10/23 12:07:55;;;;;;;10.98;6.43;;;14.90;99.90;;;;;;5069907;28;20100;-94
2023/10/23 12:12:56;;;;;;;9.55;4.88;;;15.00;99.90;;;;;;5136419;22;20049;-94
2023/10/23 12:15:23;;;;;;;8.35;4.80;;;15.00;99.90;;;;;;5021223;28;20010;-96
2023/10/23 12:17:51;;;;;;;8.68;4.13;;;15.00;99.90;;;;;;5021501;28;20018;-96
2023/10/23 12:20:21;;;;;;;6.22;3.97;;;15.10;99.90;;;;;;5030508;28;20029;-93
2023/10/23 12:22:48;;;;;;;9.35;3.80;;;15.10;99.90;;;;;;5004589;28;20024;-95
2023/10/23 12:25:18;;;;;;;7.95;4.00;;;15.20;99.90;;;;;;5023203;28;20026;-95
2023/10/23 12:27:44;;;;;;;7.68;3.50;;;15.20;99.90;;;;;;4997697;28;20015;-94
2023/10/23 12:30:16;;;;;;;9.35;4.18;;;15.30;99.90;;;;;;4989298;28;20037;-95
2023/10/23 12:33:09;;;;;;;9.82;3.80;;;15.30;99.90;;;;;;5007022;28;20052;-94
2023/10/23 12:35:35;;;;;;;10.20;3.70;;;15.30;99.90;;;;;;5009330;28;20030;-95
2023/10/23 12:38:01;;;;;;;9.23;4.22;;;15.30;99.90;;;;;;5010309;28;20089;-95
2023/10/23 12:40:27;;;;;;;8.80;3.80;;;15.30;99.90;;;;;;5024538;28;20053;-96
2023/10/23 12:43:22;;;;;;;8.43;3.45;;;15.40;99.90;;;;;;4993648;28;20030;-95
2023/10/23 12:45:51;;;;;;;10.70;4.20;;;15.40;99.90;;;;;;5028425;28;20029;-94
2023/10/23 12:48:17;;;;;;;6.18;3.17;;;15.30;99.90;;;;;;5002765;28;20049;-94